sensor_id;sensor_type;location;lat;lon;timestamp;P1;durP1;ratioP1;P2;durP2;ratioP2
40601;SDS011;26310;50.278;19.032;2023-07-29T00:01:08;19.43;;;16.73;;
40601;SDS011;26310;50.278;19.032;2023-07-29T00:06:11;20.60;;;16.97;;
40601;SDS011;26310;50.278;19.032;2023-07-29T00:11:13;19.10;;;15.87;;
40601;SDS011;26310;50.278;19.032;2023-07-29T00:16:16;23.13;;;15.53;;
40601;SDS011;26310;50.278;19.032;2023-07-29T00:21:19;19.70;;;15.00;;
40601;SDS011;26310;50.278;19.032;2023-07-29T00:26:22;21.20;;;17.03;;
40601;SDS011;26310;50.278;19.032;2023-07-29T00:31:27;23.93;;;16.93;;
40601;SDS011;26310;50.278;19.032;2023-07-29T00:36:30;21.77;;;16.87;;
40601;SDS011;26310;50.278;19.032;2023-07-29T00:41:33;22.50;;;15.83;;
40601;SDS011;26310;50.278;19.032;2023-07-29T00:46:36;22.70;;;16.73;;
40601;SDS011;26310;50.278;19.032;2023-07-29T00:51:40;24.40;;;18.60;;
40601;SDS011;26310;50.278;19.032;2023-07-29T00:56:43;23.07;;;18.03;;
40601;SDS011;26310;50.278;19.032;2023-07-29T01:01:46;27.70;;;24.70;;
40601;SDS011;26310;50.278;19.032;2023-07-29T01:17:42;43.37;;;33.00;;
40601;SDS011;26310;50.278;19.032;2023-07-29T01:22:48;45.40;;;34.20;;
40601;SDS011;26310;50.278;19.032;2023-07-29T01:27:52;47.43;;;35.47;;
40601;SDS011;26310;50.278;19.032;2023-07-29T01:33:04;43.90;;;30.90;;
40601;SDS011;26310;50.278;19.032;2023-07-29T01:43:20;37.53;;;26.83;;
40601;SDS011;26310;50.278;19.032;2023-07-29T01:48:25;34.47;;;26.93;;
40601;SDS011;26310;50.278;19.032;2023-07-29T01:53:29;42.17;;;29.70;;
40601;SDS011;26310;50.278;19.032;2023-07-29T01:58:32;37.03;;;27.27;;
40601;SDS011;26310;50.278;19.032;2023-07-29T02:03:34;33.80;;;25.33;;
40601;SDS011;26310;50.278;19.032;2023-07-29T02:08:37;29.67;;;22.20;;
40601;SDS011;26310;50.278;19.032;2023-07-29T02:13:42;24.67;;;19.10;;
40601;SDS011;26310;50.278;19.032;2023-07-29T02:18:45;26.53;;;19.20;;
40601;SDS011;26310;50.278;19.032;2023-07-29T02:23:48;24.17;;;18.70;;
40601;SDS011;26310;50.278;19.032;2023-07-29T02:28:51;25.00;;;18.27;;
40601;SDS011;26310;50.278;19.032;2023-07-29T02:33:54;21.93;;;17.23;;
40601;SDS011;26310;50.278;19.032;2023-07-29T02:38:57;28.83;;;18.17;;
40601;SDS011;26310;50.278;19.032;2023-07-29T02:44:01;24.87;;;17.97;;
40601;SDS011;26310;50.278;19.032;2023-07-29T02:49:05;23.47;;;17.53;;
40601;SDS011;26310;50.278;19.032;2023-07-29T02:54:07;23.23;;;16.97;;
40601;SDS011;26310;50.278;19.032;2023-07-29T02:59:10;21.73;;;16.67;;
40601;SDS011;26310;50.278;19.032;2023-07-29T03:04:13;22.57;;;16.60;;
40601;SDS011;26310;50.278;19.032;2023-07-29T03:09:16;21.63;;;16.07;;
40601;SDS011;26310;50.278;19.032;2023-07-29T03:14:19;23.00;;;16.60;;
40601;SDS011;26310;50.278;19.032;2023-07-29T03:19:22;20.13;;;14.63;;
40601;SDS011;26310;50.278;19.032;2023-07-29T03:24:25;16.50;;;14.67;;
40601;SDS011;26310;50.278;19.032;2023-07-29T03:29:28;20.30;;;14.20;;
40601;SDS011;26310;50.278;19.032;2023-07-29T03:34:30;21.37;;;15.07;;
40601;SDS011;26310;50.278;19.032;2023-07-29T03:39:33;20.73;;;15.30;;
40601;SDS011;26310;50.278;19.032;2023-07-29T03:44:36;18.23;;;14.70;;
40601;SDS011;26310;50.278;19.032;2023-07-29T03:49:41;20.67;;;16.47;;
40601;SDS011;26310;50.278;19.032;2023-07-29T03:54:44;17.87;;;14.73;;
40601;SDS011;26310;50.278;19.032;2023-07-29T03:59:46;21.87;;;14.17;;
40601;SDS011;26310;50.278;19.032;2023-07-29T04:04:49;19.30;;;14.33;;
40601;SDS011;26310;50.278;19.032;2023-07-29T04:09:52;19.33;;;14.90;;
40601;SDS011;26310;50.278;19.032;2023-07-29T04:14:55;21.50;;;15.83;;
40601;SDS011;26310;50.278;19.032;2023-07-29T04:19:58;20.57;;;16.17;;
40601;SDS011;26310;50.278;19.032;2023-07-29T04:25:01;23.20;;;15.37;;
40601;SDS011;26310;50.278;19.032;2023-07-29T04:30:06;18.60;;;14.70;;
40601;SDS011;26310;50.278;19.032;2023-07-29T04:35:09;19.30;;;16.83;;
40601;SDS011;26310;50.278;19.032;2023-07-29T04:40:12;16.90;;;14.27;;
40601;SDS011;26310;50.278;19.032;2023-07-29T04:45:15;18.80;;;14.90;;
40601;SDS011;26310;50.278;19.032;2023-07-29T04:50:18;21.00;;;14.20;;
40601;SDS011;26310;50.278;19.032;2023-07-29T04:55:21;15.57;;;13.77;;
40601;SDS011;26310;50.278;19.032;2023-07-29T05:00:24;18.27;;;13.43;;
40601;SDS011;26310;50.278;19.032;2023-07-29T05:05:27;18.20;;;12.70;;
40601;SDS011;26310;50.278;19.032;2023-07-29T05:10:30;14.48;;;12.10;;
40601;SDS011;26310;50.278;19.032;2023-07-29T05:15:32;15.18;;;12.50;;
40601;SDS011;26310;50.278;19.032;2023-07-29T05:20:35;15.90;;;12.10;;
40601;SDS011;26310;50.278;19.032;2023-07-29T05:25:38;13.93;;;11.07;;
40601;SDS011;26310;50.278;19.032;2023-07-29T05:30:43;12.80;;;10.68;;
40601;SDS011;26310;50.278;19.032;2023-07-29T05:35:46;12.30;;;11.00;;
40601;SDS011;26310;50.278;19.032;2023-07-29T05:40:49;13.27;;;10.15;;
40601;SDS011;26310;50.278;19.032;2023-07-29T05:45:52;11.60;;;10.40;;
40601;SDS011;26310;50.278;19.032;2023-07-29T05:50:55;10.38;;;9.32;;
40601;SDS011;26310;50.278;19.032;2023-07-29T05:55:58;10.18;;;8.80;;
40601;SDS011;26310;50.278;19.032;2023-07-29T06:01:01;11.60;;;8.93;;
40601;SDS011;26310;50.278;19.032;2023-07-29T06:06:04;8.97;;;8.07;;
40601;SDS011;26310;50.278;19.032;2023-07-29T06:11:06;12.23;;;7.68;;
40601;SDS011;26310;50.278;19.032;2023-07-29T06:16:09;8.70;;;7.55;;
40601;SDS011;26310;50.278;19.032;2023-07-29T06:21:12;11.63;;;7.85;;
40601;SDS011;26310;50.278;19.032;2023-07-29T06:26:19;8.27;;;7.43;;
40601;SDS011;26310;50.278;19.032;2023-07-29T06:31:22;8.57;;;7.30;;
40601;SDS011;26310;50.278;19.032;2023-07-29T06:36:25;10.15;;;7.97;;
40601;SDS011;26310;50.278;19.032;2023-07-29T06:41:27;8.73;;;7.40;;
40601;SDS011;26310;50.278;19.032;2023-07-29T06:46:30;8.13;;;7.30;;
40601;SDS011;26310;50.278;19.032;2023-07-29T06:51:33;12.00;;;7.22;;
40601;SDS011;26310;50.278;19.032;2023-07-29T06:56:37;8.70;;;6.78;;
40601;SDS011;26310;50.278;19.032;2023-07-29T07:01:40;6.97;;;6.35;;
40601;SDS011;26310;50.278;19.032;2023-07-29T07:06:43;8.77;;;7.05;;
40601;SDS011;26310;50.278;19.032;2023-07-29T07:11:46;10.30;;;6.93;;
40601;SDS011;26310;50.278;19.032;2023-07-29T07:16:49;9.73;;;6.80;;
40601;SDS011;26310;50.278;19.032;2023-07-29T07:21:52;7.13;;;6.40;;
40601;SDS011;26310;50.278;19.032;2023-07-29T07:26:55;9.90;;;6.55;;
40601;SDS011;26310;50.278;19.032;2023-07-29T07:31:58;7.25;;;6.55;;
40601;SDS011;26310;50.278;19.032;2023-07-29T07:37:01;7.38;;;6.68;;
40601;SDS011;26310;50.278;19.032;2023-07-29T07:42:06;9.75;;;6.68;;
40601;SDS011;26310;50.278;19.032;2023-07-29T07:47:08;7.22;;;6.53;;
40601;SDS011;26310;50.278;19.032;2023-07-29T07:52:11;13.95;;;9.65;;
40601;SDS011;26310;50.278;19.032;2023-07-29T07:57:14;12.88;;;9.27;;
40601;SDS011;26310;50.278;19.032;2023-07-29T08:02:17;8.70;;;7.47;;
40601;SDS011;26310;50.278;19.032;2023-07-29T08:07:20;6.25;;;5.75;;
40601;SDS011;26310;50.278;19.032;2023-07-29T08:12:23;4.97;;;4.47;;
40601;SDS011;26310;50.278;19.032;2023-07-29T08:17:26;4.97;;;3.47;;
40601;SDS011;26310;50.278;19.032;2023-07-29T08:22:28;4.30;;;3.90;;
40601;SDS011;26310;50.278;19.032;2023-07-29T08:27:33;4.45;;;3.88;;
40601;SDS011;26310;50.278;19.032;2023-07-29T08:32:36;4.32;;;3.25;;
40601;SDS011;26310;50.278;19.032;2023-07-29T08:37:39;7.85;;;3.90;;
40601;SDS011;26310;50.278;19.032;2023-07-29T08:42:42;4.35;;;3.53;;
40601;SDS011;26310;50.278;19.032;2023-07-29T08:47:47;5.03;;;4.50;;
40601;SDS011;26310;50.278;19.032;2023-07-29T08:52:52;5.22;;;4.03;;
40601;SDS011;26310;50.278;19.032;2023-07-29T08:57:55;4.55;;;4.15;;
40601;SDS011;26310;50.278;19.032;2023-07-29T09:02:58;4.40;;;4.00;;
40601;SDS011;26310;50.278;19.032;2023-07-29T09:08:08;3.70;;;3.30;;
40601;SDS011;26310;50.278;19.032;2023-07-29T09:13:11;5.07;;;3.45;;
40601;SDS011;26310;50.278;19.032;2023-07-29T09:18:18;4.30;;;3.95;;
40601;SDS011;26310;50.278;19.032;2023-07-29T09:23:21;5.25;;;3.33;;
40601;SDS011;26310;50.278;19.032;2023-07-29T09:28:24;3.60;;;3.30;;
40601;SDS011;26310;50.278;19.032;2023-07-29T09:33:30;4.20;;;3.63;;
40601;SDS011;26310;50.278;19.032;2023-07-29T09:38:39;4.35;;;3.83;;
40601;SDS011;26310;50.278;19.032;2023-07-29T09:43:42;4.30;;;3.25;;
40601;SDS011;26310;50.278;19.032;2023-07-29T09:48:45;4.63;;;3.03;;
40601;SDS011;26310;50.278;19.032;2023-07-29T09:53:49;4.18;;;3.40;;
40601;SDS011;26310;50.278;19.032;2023-07-29T09:58:55;4.07;;;3.20;;
40601;SDS011;26310;50.278;19.032;2023-07-29T10:04:05;4.35;;;3.13;;
40601;SDS011;26310;50.278;19.032;2023-07-29T10:09:11;3.45;;;3.03;;
40601;SDS011;26310;50.278;19.032;2023-07-29T10:14:17;2.85;;;2.42;;
40601;SDS011;26310;50.278;19.032;2023-07-29T10:19:20;2.90;;;2.60;;
40601;SDS011;26310;50.278;19.032;2023-07-29T10:24:25;3.08;;;2.58;;
40601;SDS011;26310;50.278;19.032;2023-07-29T10:29:36;5.75;;;3.78;;
40601;SDS011;26310;50.278;19.032;2023-07-29T10:34:40;3.70;;;2.90;;
40601;SDS011;26310;50.278;19.032;2023-07-29T10:40:05;4.20;;;3.08;;
40601;SDS011;26310;50.278;19.032;2023-07-29T10:45:21;3.58;;;3.00;;
40601;SDS011;26310;50.278;19.032;2023-07-29T10:50:24;4.88;;;2.95;;
40601;SDS011;26310;50.278;19.032;2023-07-29T10:55:33;3.15;;;2.85;;
40601;SDS011;26310;50.278;19.032;2023-07-29T11:00:43;3.80;;;3.35;;
40601;SDS011;26310;50.278;19.032;2023-07-29T11:05:48;4.07;;;3.30;;
40601;SDS011;26310;50.278;19.032;2023-07-29T11:16:06;5.18;;;2.78;;
40601;SDS011;26310;50.278;19.032;2023-07-29T11:21:11;3.05;;;2.75;;
40601;SDS011;26310;50.278;19.032;2023-07-29T11:26:16;3.38;;;2.65;;
40601;SDS011;26310;50.278;19.032;2023-07-29T11:31:19;3.28;;;2.70;;
40601;SDS011;26310;50.278;19.032;2023-07-29T11:36:22;3.05;;;2.70;;
40601;SDS011;26310;50.278;19.032;2023-07-29T11:41:26;2.92;;;2.40;;
40601;SDS011;26310;50.278;19.032;2023-07-29T11:46:28;2.42;;;2.22;;
40601;SDS011;26310;50.278;19.032;2023-07-29T11:51:31;2.45;;;2.20;;
40601;SDS011;26310;50.278;19.032;2023-07-29T11:56:34;2.90;;;2.60;;
40601;SDS011;26310;50.278;19.032;2023-07-29T12:01:38;2.75;;;2.50;;
40601;SDS011;26310;50.278;19.032;2023-07-29T12:06:41;5.15;;;3.70;;
40601;SDS011;26310;50.278;19.032;2023-07-29T12:11:44;3.95;;;2.90;;
40601;SDS011;26310;50.278;19.032;2023-07-29T12:16:47;3.58;;;2.75;;
40601;SDS011;26310;50.278;19.032;2023-07-29T12:21:51;3.67;;;2.63;;
40601;SDS011;26310;50.278;19.032;2023-07-29T12:26:54;3.50;;;2.30;;
40601;SDS011;26310;50.278;19.032;2023-07-29T12:31:57;2.40;;;2.20;;
40601;SDS011;26310;50.278;19.032;2023-07-29T12:37:03;2.85;;;2.30;;
40601;SDS011;26310;50.278;19.032;2023-07-29T12:42:06;2.83;;;2.33;;
40601;SDS011;26310;50.278;19.032;2023-07-29T12:47:09;2.60;;;2.40;;
40601;SDS011;26310;50.278;19.032;2023-07-29T12:52:13;3.72;;;2.63;;
40601;SDS011;26310;50.278;19.032;2023-07-29T12:57:16;3.28;;;2.25;;
40601;SDS011;26310;50.278;19.032;2023-07-29T13:02:19;2.58;;;2.10;;
40601;SDS011;26310;50.278;19.032;2023-07-29T13:07:22;2.30;;;2.10;;
40601;SDS011;26310;50.278;19.032;2023-07-29T13:12:24;2.30;;;2.10;;
40601;SDS011;26310;50.278;19.032;2023-07-29T13:17:27;2.30;;;2.10;;
40601;SDS011;26310;50.278;19.032;2023-07-29T13:22:30;4.40;;;2.55;;
40601;SDS011;26310;50.278;19.032;2023-07-29T13:27:33;2.70;;;2.08;;
40601;SDS011;26310;50.278;19.032;2023-07-29T13:32:36;2.70;;;1.85;;
40601;SDS011;26310;50.278;19.032;2023-07-29T13:37:39;2.42;;;1.90;;
40601;SDS011;26310;50.278;19.032;2023-07-29T13:42:42;2.00;;;1.80;;
40601;SDS011;26310;50.278;19.032;2023-07-29T13:47:44;3.38;;;1.90;;
40601;SDS011;26310;50.278;19.032;2023-07-29T13:52:47;2.60;;;2.00;;
40601;SDS011;26310;50.278;19.032;2023-07-29T13:57:52;3.25;;;2.20;;
40601;SDS011;26310;50.278;19.032;2023-07-29T14:02:55;2.55;;;1.90;;
40601;SDS011;26310;50.278;19.032;2023-07-29T14:07:58;2.35;;;1.92;;
40601;SDS011;26310;50.278;19.032;2023-07-29T14:13:01;2.35;;;1.90;;
40601;SDS011;26310;50.278;19.032;2023-07-29T14:18:04;2.53;;;1.90;;
40601;SDS011;26310;50.278;19.032;2023-07-29T14:23:08;2.53;;;1.55;;
40601;SDS011;26310;50.278;19.032;2023-07-29T14:28:12;1.77;;;1.40;;
40601;SDS011;26310;50.278;19.032;2023-07-29T14:33:15;2.20;;;1.50;;
40601;SDS011;26310;50.278;19.032;2023-07-29T14:38:18;1.77;;;1.60;;
40601;SDS011;26310;50.278;19.032;2023-07-29T14:43:22;1.83;;;1.45;;
40601;SDS011;26310;50.278;19.032;2023-07-29T14:48:25;1.80;;;1.35;;
40601;SDS011;26310;50.278;19.032;2023-07-29T14:53:28;2.35;;;1.50;;
40601;SDS011;26310;50.278;19.032;2023-07-29T14:58:31;2.28;;;1.60;;
40601;SDS011;26310;50.278;19.032;2023-07-29T15:03:34;2.92;;;1.42;;
40601;SDS011;26310;50.278;19.032;2023-07-29T15:08:37;2.00;;;1.60;;
40601;SDS011;26310;50.278;19.032;2023-07-29T15:13:39;1.50;;;1.40;;
40601;SDS011;26310;50.278;19.032;2023-07-29T15:18:42;2.53;;;1.60;;
40601;SDS011;26310;50.278;19.032;2023-07-29T15:23:45;2.00;;;1.50;;
40601;SDS011;26310;50.278;19.032;2023-07-29T15:28:48;2.30;;;1.60;;
40601;SDS011;26310;50.278;19.032;2023-07-29T15:33:51;3.45;;;1.40;;
40601;SDS011;26310;50.278;19.032;2023-07-29T15:38:53;2.70;;;1.58;;
40601;SDS011;26310;50.278;19.032;2023-07-29T15:43:56;1.75;;;1.45;;
40601;SDS011;26310;50.278;19.032;2023-07-29T15:48:59;3.40;;;1.85;;
40601;SDS011;26310;50.278;19.032;2023-07-29T15:54:02;2.25;;;1.88;;
40601;SDS011;26310;50.278;19.032;2023-07-29T15:59:05;2.80;;;1.77;;
40601;SDS011;26310;50.278;19.032;2023-07-29T16:04:08;2.70;;;1.80;;
40601;SDS011;26310;50.278;19.032;2023-07-29T16:09:11;3.58;;;1.80;;
40601;SDS011;26310;50.278;19.032;2023-07-29T16:14:14;4.68;;;1.65;;
40601;SDS011;26310;50.278;19.032;2023-07-29T16:19:22;2.08;;;1.42;;
40601;SDS011;26310;50.278;19.032;2023-07-29T16:24:26;5.20;;;1.60;;
40601;SDS011;26310;50.278;19.032;2023-07-29T16:29:29;2.53;;;1.60;;
40601;SDS011;26310;50.278;19.032;2023-07-29T16:34:32;3.38;;;1.70;;
40601;SDS011;26310;50.278;19.032;2023-07-29T16:39:35;3.47;;;1.58;;
40601;SDS011;26310;50.278;19.032;2023-07-29T16:44:38;2.38;;;1.77;;
40601;SDS011;26310;50.278;19.032;2023-07-29T16:49:42;3.03;;;2.05;;
40601;SDS011;26310;50.278;19.032;2023-07-29T16:54:45;3.17;;;2.10;;
40601;SDS011;26310;50.278;19.032;2023-07-29T16:59:48;4.53;;;1.85;;
40601;SDS011;26310;50.278;19.032;2023-07-29T17:04:51;2.50;;;1.80;;
40601;SDS011;26310;50.278;19.032;2023-07-29T17:09:53;3.05;;;1.92;;
40601;SDS011;26310;50.278;19.032;2023-07-29T17:14:57;2.17;;;1.90;;
40601;SDS011;26310;50.278;19.032;2023-07-29T17:20:00;3.72;;;2.20;;
40601;SDS011;26310;50.278;19.032;2023-07-29T17:25:04;2.03;;;1.55;;
40601;SDS011;26310;50.278;19.032;2023-07-29T17:30:07;3.17;;;1.58;;
40601;SDS011;26310;50.278;19.032;2023-07-29T17:35:10;2.25;;;1.65;;
40601;SDS011;26310;50.278;19.032;2023-07-29T17:40:15;2.20;;;1.25;;
40601;SDS011;26310;50.278;19.032;2023-07-29T17:45:18;2.75;;;1.20;;
40601;SDS011;26310;50.278;19.032;2023-07-29T17:50:21;4.22;;;1.27;;
40601;SDS011;26310;50.278;19.032;2023-07-29T17:55:24;1.80;;;1.20;;
40601;SDS011;26310;50.278;19.032;2023-07-29T18:00:27;2.78;;;1.17;;
40601;SDS011;26310;50.278;19.032;2023-07-29T18:05:30;2.50;;;1.20;;
40601;SDS011;26310;50.278;19.032;2023-07-29T18:10:33;2.05;;;1.35;;
40601;SDS011;26310;50.278;19.032;2023-07-29T18:15:35;3.33;;;1.30;;
40601;SDS011;26310;50.278;19.032;2023-07-29T18:20:38;2.50;;;1.30;;
40601;SDS011;26310;50.278;19.032;2023-07-29T18:25:41;2.40;;;1.40;;
40601;SDS011;26310;50.278;19.032;2023-07-29T18:30:44;2.58;;;1.73;;
40601;SDS011;26310;50.278;19.032;2023-07-29T18:35:49;1.75;;;1.40;;
40601;SDS011;26310;50.278;19.032;2023-07-29T18:40:52;1.95;;;1.35;;
40601;SDS011;26310;50.278;19.032;2023-07-29T18:45:54;2.00;;;1.48;;
40601;SDS011;26310;50.278;19.032;2023-07-29T18:50:58;2.20;;;1.70;;
40601;SDS011;26310;50.278;19.032;2023-07-29T18:56:02;3.22;;;1.98;;
40601;SDS011;26310;50.278;19.032;2023-07-29T19:01:05;3.97;;;1.80;;
40601;SDS011;26310;50.278;19.032;2023-07-29T19:06:09;3.13;;;2.28;;
40601;SDS011;26310;50.278;19.032;2023-07-29T19:11:12;2.83;;;2.08;;
40601;SDS011;26310;50.278;19.032;2023-07-29T19:16:16;4.10;;;2.30;;
40601;SDS011;26310;50.278;19.032;2023-07-29T19:21:22;4.03;;;2.50;;
40601;SDS011;26310;50.278;19.032;2023-07-29T19:26:25;3.97;;;2.55;;
40601;SDS011;26310;50.278;19.032;2023-07-29T19:31:29;4.15;;;2.72;;
40601;SDS011;26310;50.278;19.032;2023-07-29T19:36:32;4.05;;;2.63;;
40601;SDS011;26310;50.278;19.032;2023-07-29T19:41:37;4.40;;;2.60;;
40601;SDS011;26310;50.278;19.032;2023-07-29T19:46:40;5.43;;;2.28;;
40601;SDS011;26310;50.278;19.032;2023-07-29T19:51:42;4.60;;;2.33;;
40601;SDS011;26310;50.278;19.032;2023-07-29T19:56:45;7.43;;;2.65;;
40601;SDS011;26310;50.278;19.032;2023-07-29T20:01:48;4.35;;;2.63;;
40601;SDS011;26310;50.278;19.032;2023-07-29T20:06:51;4.05;;;2.40;;
40601;SDS011;26310;50.278;19.032;2023-07-29T20:11:56;4.10;;;2.35;;
40601;SDS011;26310;50.278;19.032;2023-07-29T20:16:59;3.90;;;2.20;;
40601;SDS011;26310;50.278;19.032;2023-07-29T20:22:02;3.70;;;2.45;;
40601;SDS011;26310;50.278;19.032;2023-07-29T20:27:05;3.50;;;2.42;;
40601;SDS011;26310;50.278;19.032;2023-07-29T20:32:08;5.00;;;2.38;;
40601;SDS011;26310;50.278;19.032;2023-07-29T20:37:11;4.75;;;2.90;;
40601;SDS011;26310;50.278;19.032;2023-07-29T20:42:14;4.10;;;2.45;;
40601;SDS011;26310;50.278;19.032;2023-07-29T20:47:17;4.30;;;2.53;;
40601;SDS011;26310;50.278;19.032;2023-07-29T20:52:19;6.10;;;2.50;;
40601;SDS011;26310;50.278;19.032;2023-07-29T20:57:22;4.07;;;2.50;;
40601;SDS011;26310;50.278;19.032;2023-07-29T21:02:25;3.45;;;2.35;;
40601;SDS011;26310;50.278;19.032;2023-07-29T21:07:29;5.22;;;2.30;;
40601;SDS011;26310;50.278;19.032;2023-07-29T21:12:32;5.90;;;2.42;;
40601;SDS011;26310;50.278;19.032;2023-07-29T21:17:35;4.00;;;2.10;;
40601;SDS011;26310;50.278;19.032;2023-07-29T21:22:38;5.43;;;2.50;;
40601;SDS011;26310;50.278;19.032;2023-07-29T21:27:41;4.80;;;2.20;;
40601;SDS011;26310;50.278;19.032;2023-07-29T21:32:44;4.00;;;2.55;;
40601;SDS011;26310;50.278;19.032;2023-07-29T21:37:47;6.45;;;3.35;;
40601;SDS011;26310;50.278;19.032;2023-07-29T21:42:52;4.25;;;2.35;;
40601;SDS011;26310;50.278;19.032;2023-07-29T21:47:55;8.27;;;2.50;;
40601;SDS011;26310;50.278;19.032;2023-07-29T21:52:58;2.85;;;1.90;;
40601;SDS011;26310;50.278;19.032;2023-07-29T21:58:01;4.55;;;2.67;;
40601;SDS011;26310;50.278;19.032;2023-07-29T22:03:04;3.88;;;2.22;;
40601;SDS011;26310;50.278;19.032;2023-07-29T22:08:07;4.78;;;2.17;;
40601;SDS011;26310;50.278;19.032;2023-07-29T22:13:10;3.45;;;2.10;;
40601;SDS011;26310;50.278;19.032;2023-07-29T22:18:13;3.13;;;2.17;;
40601;SDS011;26310;50.278;19.032;2023-07-29T22:23:15;3.30;;;1.90;;
40601;SDS011;26310;50.278;19.032;2023-07-29T22:28:18;3.05;;;1.90;;
40601;SDS011;26310;50.278;19.032;2023-07-29T22:33:21;2.92;;;1.80;;
40601;SDS011;26310;50.278;19.032;2023-07-29T22:38:25;5.00;;;2.25;;
40601;SDS011;26310;50.278;19.032;2023-07-29T22:43:28;2.50;;;1.83;;
40601;SDS011;26310;50.278;19.032;2023-07-29T22:48:32;4.80;;;2.00;;
40601;SDS011;26310;50.278;19.032;2023-07-29T22:53:35;6.05;;;2.00;;
40601;SDS011;26310;50.278;19.032;2023-07-29T22:58:37;4.28;;;2.50;;
40601;SDS011;26310;50.278;19.032;2023-07-29T23:03:40;5.53;;;2.42;;
40601;SDS011;26310;50.278;19.032;2023-07-29T23:08:43;4.75;;;2.55;;
40601;SDS011;26310;50.278;19.032;2023-07-29T23:13:46;3.22;;;2.60;;
40601;SDS011;26310;50.278;19.032;2023-07-29T23:18:49;3.95;;;2.25;;
40601;SDS011;26310;50.278;19.032;2023-07-29T23:23:52;5.55;;;2.60;;
40601;SDS011;26310;50.278;19.032;2023-07-29T23:28:54;3.55;;;2.50;;
40601;SDS011;26310;50.278;19.032;2023-07-29T23:33:57;3.35;;;2.85;;
40601;SDS011;26310;50.278;19.032;2023-07-29T23:39:01;4.35;;;2.55;;
40601;SDS011;26310;50.278;19.032;2023-07-29T23:44:03;5.00;;;2.50;;
40601;SDS011;26310;50.278;19.032;2023-07-29T23:49:06;3.65;;;2.28;;
40601;SDS011;26310;50.278;19.032;2023-07-29T23:54:09;4.60;;;2.25;;
40601;SDS011;26310;50.278;19.032;2023-07-29T23:59:12;2.75;;;2.10;;
